Terminal Aerodrome Forecast
Issued by NWS Memphis, TN

Home | Current Version | Previous Version | Text Only | Print | Product List | Glossary On
Versions: 1 2 3 4 5 6 7 8 9 10 11 12 13 14 15 16 17 18 19 20 21 22 23 24 25 26 27 28 29
000
FTUS44 KMEG 231735
TAFMEM
TAF
KMEM 231735Z 2318/2418 17007KT P6SM VCTS SCT040CB BKN200
      TEMPO 2321/2401 VRB10G25KT 3SM -TSRA BR BKN035CB OVC080
     FM240200 VRB03KT P6SM BKN100 BKN250
     FM241500 19005KT P6SM VCTS SCT035CB BKN250=

USA.gov is the U.S. government's official web portal to all federal, state and local government web resources and services.